createdAt,value
2022-10-31T00:01:02.858Z,375.23
2022-10-31T00:03:50.862Z,396.45
2022-10-31T00:06:38.790Z,391.20
2022-10-31T00:09:28.053Z,390.02
2022-10-31T00:12:15.999Z,382.00
2022-10-31T00:15:04.095Z,361.35
2022-10-31T00:17:52.012Z,380.08
2022-10-31T00:20:40.819Z,397.92
2022-10-31T00:23:28.791Z,363.30
2022-10-31T00:26:18.187Z,375.10
2022-10-31T00:29:06.461Z,369.60
2022-10-31T00:31:54.667Z,370.88
2022-10-31T00:34:42.584Z,369.45
2022-10-31T00:37:31.353Z,377.20
2022-10-31T00:40:19.274Z,369.30
2022-10-31T00:43:08.727Z,347.00
2022-10-31T00:45:56.901Z,341.70
2022-10-31T00:48:46.239Z,367.65
2022-10-31T00:51:34.342Z,361.25
2022-10-31T00:54:22.378Z,363.38
2022-10-31T00:57:11.150Z,381.88
2022-10-31T01:00:00.460Z,352.45
2022-10-31T01:02:49.982Z,354.13
2022-10-31T01:05:37.912Z,366.73
2022-10-31T01:08:26.035Z,366.77
2022-10-31T01:11:16.602Z,385.70
2022-10-31T01:14:04.621Z,360.98
2022-10-31T01:16:55.575Z,353.77
2022-10-31T01:19:43.993Z,345.50
2022-10-31T01:22:31.946Z,358.98
2022-10-31T01:25:21.965Z,372.63
2022-10-31T01:28:10.775Z,324.95
2022-10-31T01:31:02.788Z,335.38
2022-10-31T01:33:52.706Z,352.00
2022-10-31T01:36:41.667Z,335.15
2022-10-31T01:39:31.239Z,357.77
2022-10-31T01:42:22.176Z,331.58
2022-10-31T01:45:12.142Z,338.13
2022-10-31T01:48:00.552Z,350.27
2022-10-31T01:50:52.760Z,345.98
2022-10-31T01:53:42.151Z,330.33
2022-10-31T01:56:30.294Z,321.58
2022-10-31T01:59:22.683Z,348.20
2022-10-31T02:02:10.962Z,347.80
2022-10-31T02:05:01.603Z,351.20
2022-10-31T02:07:57.301Z,348.40
2022-10-31T02:10:51.375Z,335.13
2022-10-31T02:13:39.712Z,359.92
2022-10-31T02:16:29.625Z,353.35
2022-10-31T02:19:26.395Z,359.23
2022-10-31T02:22:22.023Z,339.42
2022-10-31T02:25:38.637Z,348.27
2022-10-31T02:28:48.444Z,344.42
2022-10-31T02:31:47.342Z,313.77
2022-10-31T02:34:43.038Z,339.63
2022-10-31T02:37:39.727Z,352.02
2022-10-31T02:40:32.324Z,357.35
2022-10-31T02:43:42.260Z,359.98
2022-10-31T02:46:36.286Z,353.42
2022-10-31T02:49:33.105Z,344.25
2022-10-31T02:52:22.552Z,346.92
2022-10-31T02:55:13.109Z,334.80
2022-10-31T02:58:04.609Z,344.88
2022-10-31T03:01:09.283Z,335.75
2022-10-31T03:04:18.571Z,338.70
2022-10-31T03:07:15.955Z,339.35
2022-10-31T03:10:11.197Z,330.88
2022-10-31T03:13:05.326Z,335.33
2022-10-31T03:15:58.063Z,349.02
2022-10-31T03:18:52.334Z,326.60
2022-10-31T03:21:45.126Z,323.98
2022-10-31T03:24:37.921Z,329.20
2022-10-31T03:27:28.257Z,345.70
2022-10-31T03:30:17.970Z,338.98
2022-10-31T03:33:22.869Z,328.23
2022-10-31T03:36:13.790Z,329.27
2022-10-31T03:39:04.252Z,343.20
2022-10-31T03:41:58.823Z,326.23
2022-10-31T03:44:53.258Z,346.17
2022-10-31T03:47:44.401Z,335.58
2022-10-31T03:50:40.843Z,345.02
2022-10-31T03:53:35.186Z,340.65
2022-10-31T03:56:31.280Z,334.08
2022-10-31T03:59:26.307Z,324.48
2022-10-31T04:02:18.030Z,342.00
2022-10-31T04:05:07.715Z,340.33
2022-10-31T04:07:58.039Z,344.25
2022-10-31T04:10:50.025Z,328.48
2022-10-31T04:13:41.303Z,347.17
2022-10-31T04:16:35.907Z,318.85
2022-10-31T04:19:26.415Z,340.65
2022-10-31T04:22:15.005Z,337.42
2022-10-31T04:25:03.284Z,327.63
2022-10-31T04:27:51.347Z,333.17
2022-10-31T04:30:39.819Z,340.52
2022-10-31T04:33:29.119Z,316.08
2022-10-31T04:36:17.228Z,326.15
2022-10-31T04:39:05.401Z,336.17
2022-10-31T04:42:01.179Z,329.50
2022-10-31T04:44:49.223Z,342.17
2022-10-31T04:47:37.437Z,345.15
2022-10-31T04:50:26.714Z,343.50
2022-10-31T04:53:15.524Z,341.45
2022-10-31T04:56:32.153Z,325.75
2022-10-31T04:59:22.582Z,341.60
2022-10-31T05:02:14.113Z,335.27
2022-10-31T05:05:08.837Z,336.33
2022-10-31T05:07:58.514Z,314.58
2022-10-31T05:10:47.350Z,327.65
2022-10-31T05:13:35.372Z,319.63
2022-10-31T05:16:49.202Z,323.23
2022-10-31T05:19:55.857Z,309.95
2022-10-31T05:23:11.358Z,313.75
2022-10-31T05:25:59.520Z,347.63
2022-10-31T05:28:47.598Z,307.60
2022-10-31T05:31:35.549Z,313.98
2022-10-31T05:34:24.523Z,304.65
2022-10-31T05:37:36.346Z,310.52
2022-10-31T05:40:26.384Z,313.08
2022-10-31T05:43:15.114Z,314.10
2022-10-31T05:46:03.603Z,305.95
2022-10-31T05:49:11.772Z,304.75
2022-10-31T05:52:22.399Z,307.90
2022-10-31T05:55:21.488Z,310.40
2022-10-31T05:58:25.837Z,311.63
2022-10-31T06:01:26.473Z,310.55
2022-10-31T06:04:14.787Z,329.98
2022-10-31T06:07:04.027Z,288.58
2022-10-31T06:09:52.152Z,281.60
2022-10-31T06:12:42.494Z,307.40
2022-10-31T06:15:40.001Z,301.00
2022-10-31T06:18:29.517Z,279.98
2022-10-31T06:21:19.097Z,288.65
2022-10-31T06:24:09.891Z,266.38
2022-10-31T06:27:15.999Z,292.27
2022-10-31T06:30:04.252Z,282.05
2022-10-31T06:32:54.991Z,284.80
2022-10-31T06:35:47.196Z,306.60
2022-10-31T06:38:35.182Z,282.90
2022-10-31T06:41:27.851Z,298.23
2022-10-31T06:44:16.051Z,285.10
2022-10-31T06:47:15.962Z,299.13
2022-10-31T06:50:21.537Z,288.25
2022-10-31T06:56:03.324Z,315.27
2022-10-31T06:58:56.120Z,315.63
2022-10-31T07:02:04.180Z,303.30
2022-10-31T07:04:31.886Z,322.10
2022-10-31T07:07:01.011Z,319.00
2022-10-31T07:09:28.680Z,312.92
2022-10-31T07:11:58.770Z,357.35
2022-10-31T07:14:26.425Z,328.40
2022-10-31T07:16:54.436Z,329.27
2022-10-31T07:19:27.926Z,355.98
2022-10-31T07:21:55.586Z,373.17
2022-10-31T07:24:27.121Z,347.48
2022-10-31T07:27:13.601Z,346.90
2022-10-31T07:29:41.280Z,336.33
2022-10-31T07:32:09.680Z,374.05
2022-10-31T07:34:46.547Z,368.33
2022-10-31T07:37:29.603Z,369.63
2022-10-31T07:40:00.655Z,376.08
2022-10-31T07:42:29.012Z,373.30
2022-10-31T07:44:57.834Z,379.58
2022-10-31T07:47:45.345Z,375.92
2022-10-31T07:50:36.110Z,396.95
2022-10-31T07:53:22.127Z,392.88
2022-10-31T07:56:13.956Z,383.80
2022-10-31T07:58:41.997Z,391.13
2022-10-31T08:01:09.766Z,405.02
2022-10-31T08:03:47.948Z,410.13
2022-10-31T08:06:35.250Z,412.50
2022-10-31T08:09:13.560Z,410.83
2022-10-31T08:11:43.250Z,394.58
2022-10-31T08:14:10.905Z,395.27
2022-10-31T08:16:38.576Z,386.27
2022-10-31T08:19:07.801Z,412.23
2022-10-31T08:21:39.160Z,416.95
2022-10-31T08:24:09.647Z,411.52
2022-10-31T08:26:37.673Z,403.88
2022-10-31T08:29:09.674Z,409.63
2022-10-31T08:31:42.708Z,434.33
2022-10-31T08:34:42.962Z,417.85
2022-10-31T08:37:36.531Z,414.02
2022-10-31T08:40:07.517Z,408.55
2022-10-31T08:42:36.145Z,434.48
2022-10-31T08:45:06.374Z,445.13
2022-10-31T08:47:34.722Z,455.73
2022-10-31T08:50:02.477Z,489.27
2022-10-31T08:52:58.914Z,478.35
2022-10-31T08:55:18.402Z,452.58
2022-10-31T08:58:05.120Z,447.38
2022-10-31T09:00:42.755Z,476.38
2022-10-31T09:03:23.923Z,477.98
2022-10-31T09:05:52.333Z,477.17
2022-10-31T09:08:19.989Z,486.02
2022-10-31T09:10:49.450Z,477.85
2022-10-31T09:13:27.331Z,550.45
2022-10-31T09:16:15.563Z,497.65
2022-10-31T09:18:44.315Z,524.95
2022-10-31T09:21:11.990Z,512.72
2022-10-31T09:23:39.872Z,499.08
2022-10-31T09:26:07.644Z,515.08
2022-10-31T09:28:38.713Z,511.20
2022-10-31T09:31:10.048Z,527.03
2022-10-31T09:33:51.191Z,511.70
2022-10-31T09:36:46.936Z,516.72
2022-10-31T09:39:19.699Z,522.22
2022-10-31T09:42:07.031Z,530.80
2022-10-31T09:44:47.300Z,545.75
2022-10-31T09:47:53.666Z,511.08
2022-10-31T09:50:48.396Z,517.15
2022-10-31T09:53:41.592Z,540.15
2022-10-31T09:56:15.166Z,533.63
2022-10-31T09:58:45.805Z,542.45
2022-10-31T10:01:30.914Z,536.83
2022-10-31T10:04:03.747Z,551.78
2022-10-31T10:07:16.379Z,525.65
2022-10-31T10:09:47.574Z,510.58
2022-10-31T10:12:48.043Z,532.28
2022-10-31T10:15:33.324Z,529.67
2022-10-31T10:18:09.791Z,540.25
2022-10-31T10:20:45.740Z,543.55
2022-10-31T10:23:32.473Z,565.47
2022-10-31T10:26:11.085Z,550.42
2022-10-31T10:28:42.647Z,553.70
2022-10-31T10:31:16.638Z,571.38
2022-10-31T10:33:57.547Z,563.00
2022-10-31T10:36:35.453Z,522.80
2022-10-31T10:39:09.616Z,550.80
2022-10-31T10:41:47.744Z,554.92
2022-10-31T10:44:16.567Z,589.30
2022-10-31T10:47:03.279Z,555.95
2022-10-31T10:49:37.803Z,553.53
2022-10-31T10:55:10.875Z,535.13
2022-10-31T10:57:51.207Z,537.53
2022-10-31T11:00:22.390Z,550.60
2022-10-31T11:02:50.745Z,557.40
2022-10-31T11:05:25.799Z,567.17
2022-10-31T11:07:53.604Z,551.60
2022-10-31T11:10:22.676Z,539.13
2022-10-31T11:13:03.522Z,556.08
2022-10-31T11:15:34.283Z,555.75
2022-10-31T11:18:02.066Z,549.10
2022-10-31T11:20:32.898Z,551.72
2022-10-31T11:23:19.891Z,559.65
2022-10-31T11:25:56.914Z,538.67
2022-10-31T11:28:25.122Z,554.28
2022-10-31T11:30:56.017Z,564.33
2022-10-31T11:33:29.968Z,571.90
2022-10-31T11:35:58.867Z,555.72
2022-10-31T11:38:34.148Z,567.75
2022-10-31T11:41:11.286Z,527.83
2022-10-31T11:43:39.677Z,546.85
2022-10-31T11:46:12.931Z,558.33
2022-10-31T11:48:40.581Z,544.92
2022-10-31T11:51:09.403Z,568.40
2022-10-31T11:53:37.655Z,554.20
2022-10-31T11:56:14.140Z,568.63
2022-10-31T11:58:41.996Z,574.08
2022-10-31T12:01:25.718Z,576.83
2022-10-31T12:04:01.730Z,566.72
2022-10-31T12:06:34.919Z,561.17
2022-10-31T12:09:02.679Z,561.30
2022-10-31T12:11:48.759Z,555.80
2022-10-31T12:14:28.461Z,569.05
2022-10-31T12:17:03.478Z,584.15
2022-10-31T12:19:41.662Z,576.15
2022-10-31T12:22:22.335Z,566.20
2022-10-31T12:25:03.358Z,571.15
2022-10-31T12:27:42.520Z,571.60
2022-10-31T12:30:22.159Z,553.08
2022-10-31T12:33:07.171Z,564.30
2022-10-31T12:35:48.169Z,569.92
2022-10-31T12:38:32.724Z,565.97
2022-10-31T12:41:13.479Z,574.72
2022-10-31T12:43:48.984Z,586.03
2022-10-31T12:46:27.282Z,564.17
2022-10-31T12:49:19.106Z,556.00
2022-10-31T12:51:59.285Z,582.83
2022-10-31T12:54:47.089Z,573.90
2022-10-31T12:57:24.801Z,582.20
2022-10-31T12:59:58.912Z,553.40
2022-10-31T13:02:31.380Z,535.75
2022-10-31T13:05:04.377Z,566.20
2022-10-31T13:07:38.228Z,562.03
2022-10-31T13:10:16.226Z,547.45
2022-10-31T13:12:45.728Z,556.00
2022-10-31T13:15:20.106Z,558.45
2022-10-31T13:17:51.269Z,586.28
2022-10-31T13:20:26.049Z,574.80
2022-10-31T13:22:58.135Z,552.95
2022-10-31T13:25:29.956Z,564.13
2022-10-31T13:28:01.448Z,544.92
2022-10-31T13:30:34.049Z,550.92
2022-10-31T13:33:06.752Z,563.90
2022-10-31T13:35:43.871Z,566.35
2022-10-31T13:38:20.637Z,550.45
2022-10-31T13:40:56.032Z,561.03
2022-10-31T13:43:33.755Z,562.17
2022-10-31T13:46:02.861Z,579.65
2022-10-31T13:48:37.993Z,561.63
2022-10-31T13:51:08.478Z,568.15
2022-10-31T13:53:45.832Z,583.22
2022-10-31T13:56:20.514Z,543.58
2022-10-31T13:59:20.500Z,556.65
2022-10-31T14:01:52.791Z,570.22
2022-10-31T14:04:25.913Z,585.95
2022-10-31T14:06:59.609Z,589.78
2022-10-31T14:09:31.452Z,579.00
2022-10-31T14:12:03.820Z,563.90
2022-10-31T14:14:37.585Z,566.42
2022-10-31T14:17:07.639Z,569.25
2022-10-31T14:19:35.225Z,556.33
2022-10-31T14:22:02.851Z,542.38
2022-10-31T14:24:36.899Z,522.00
2022-10-31T14:27:26.306Z,564.10
2022-10-31T14:29:53.964Z,547.67
2022-10-31T14:32:25.255Z,553.85
2022-10-31T14:34:55.780Z,551.40
2022-10-31T14:38:03.927Z,569.50
2022-10-31T14:40:43.093Z,567.65
2022-10-31T14:43:45.580Z,557.85
2022-10-31T14:46:20.227Z,554.10
2022-10-31T14:49:19.069Z,555.10
2022-10-31T14:51:50.976Z,533.35
2022-10-31T14:54:24.974Z,569.40
2022-10-31T14:56:55.425Z,540.97
2022-10-31T14:59:29.521Z,564.28
2022-10-31T15:02:01.579Z,574.70
2022-10-31T15:04:33.518Z,544.50
2022-10-31T15:07:07.831Z,544.83
2022-10-31T15:09:37.716Z,565.78
2022-10-31T15:12:24.518Z,543.20
2022-10-31T15:14:52.798Z,556.15
2022-10-31T15:17:21.628Z,564.50
2022-10-31T15:19:50.658Z,552.13
2022-10-31T15:22:20.132Z,549.33
2022-10-31T15:24:48.406Z,576.88
2022-10-31T15:27:19.505Z,567.80
2022-10-31T15:29:51.459Z,551.85
2022-10-31T15:32:23.505Z,538.33
2022-10-31T15:34:54.069Z,549.70
2022-10-31T15:37:23.269Z,558.55
2022-10-31T15:39:51.695Z,533.47
2022-10-31T15:42:23.126Z,535.08
2022-10-31T15:44:56.614Z,523.17
2022-10-31T15:47:25.635Z,521.15
2022-10-31T15:49:56.687Z,496.05
2022-10-31T15:52:31.833Z,500.08
2022-10-31T15:55:02.931Z,536.80
2022-10-31T15:57:31.274Z,505.83
2022-10-31T15:59:59.617Z,526.50
2022-10-31T16:02:29.381Z,504.17
2022-10-31T16:05:01.853Z,517.28
2022-10-31T16:07:31.179Z,502.55
2022-10-31T16:10:00.399Z,501.13
2022-10-31T16:12:33.789Z,489.30
2022-10-31T16:15:01.628Z,501.30
2022-10-31T16:17:30.026Z,519.63
2022-10-31T16:20:00.843Z,532.28
2022-10-31T16:22:30.892Z,499.60
2022-10-31T16:25:04.051Z,500.60
2022-10-31T16:27:34.516Z,522.13
2022-10-31T16:30:05.207Z,481.77
2022-10-31T16:32:36.022Z,499.48
2022-10-31T16:35:25.270Z,496.35
2022-10-31T16:37:53.005Z,488.45
2022-10-31T16:40:21.496Z,484.05
2022-10-31T16:42:49.860Z,493.90
2022-10-31T16:45:19.847Z,479.33
2022-10-31T16:47:49.240Z,473.83
2022-10-31T16:50:21.378Z,480.63
2022-10-31T16:55:42.922Z,476.63
2022-10-31T16:58:18.082Z,482.98
2022-10-31T17:00:46.504Z,481.38
2022-10-31T17:03:14.240Z,481.88
2022-10-31T17:05:43.243Z,499.13
2022-10-31T17:08:10.836Z,485.98
2022-10-31T17:10:39.850Z,526.20
2022-10-31T17:13:11.552Z,535.90
2022-10-31T17:15:44.268Z,526.30
2022-10-31T17:18:13.993Z,511.95
2022-10-31T17:20:44.104Z,508.23
2022-10-31T17:23:12.424Z,523.78
2022-10-31T17:25:40.798Z,509.30
2022-10-31T17:28:09.296Z,505.48
2022-10-31T17:30:38.770Z,530.33
2022-10-31T17:33:06.389Z,493.13
2022-10-31T17:35:34.068Z,525.70
2022-10-31T17:38:03.028Z,505.05
2022-10-31T17:40:30.640Z,495.40
2022-10-31T17:42:58.985Z,524.00
2022-10-31T17:45:27.901Z,509.92
2022-10-31T17:47:55.740Z,500.17
2022-10-31T17:50:27.300Z,496.77
2022-10-31T17:52:54.979Z,480.60
2022-10-31T17:55:23.948Z,485.73
2022-10-31T17:57:51.634Z,491.15
2022-10-31T18:00:23.970Z,489.80
2022-10-31T18:02:51.649Z,500.73
2022-10-31T18:05:19.561Z,482.75
2022-10-31T18:07:50.979Z,509.38
2022-10-31T18:10:19.127Z,479.35
2022-10-31T18:12:48.701Z,490.48
2022-10-31T18:15:17.136Z,489.70
2022-10-31T18:17:45.639Z,504.02
2022-10-31T18:20:13.727Z,486.33
2022-10-31T18:22:41.490Z,487.25
2022-10-31T18:25:09.817Z,474.63
2022-10-31T18:27:37.485Z,491.42
2022-10-31T18:30:08.086Z,492.58
2022-10-31T18:32:36.358Z,493.25
2022-10-31T18:35:04.202Z,489.85
2022-10-31T18:37:32.013Z,475.77
2022-10-31T18:39:59.727Z,458.23
2022-10-31T18:42:27.358Z,461.38
2022-10-31T18:44:55.012Z,460.38
2022-10-31T18:47:23.964Z,452.13
2022-10-31T18:49:51.672Z,501.38
2022-10-31T18:52:19.770Z,477.42
2022-10-31T18:54:47.588Z,443.08
2022-10-31T18:57:15.323Z,467.23
2022-10-31T18:59:43.057Z,449.50
2022-10-31T19:02:10.829Z,469.60
2022-10-31T19:04:39.838Z,443.42
2022-10-31T19:07:07.749Z,450.95
2022-10-31T19:09:35.447Z,449.67
2022-10-31T19:12:03.093Z,417.77
2022-10-31T19:14:30.728Z,427.95
2022-10-31T19:17:02.175Z,419.08
2022-10-31T19:19:30.238Z,442.83
2022-10-31T19:21:59.227Z,437.95
2022-10-31T19:24:26.825Z,453.35
2022-10-31T19:26:54.477Z,430.42
2022-10-31T19:29:22.121Z,443.60
2022-10-31T19:31:49.916Z,431.77
2022-10-31T19:34:17.563Z,421.40
2022-10-31T19:36:45.510Z,452.23
2022-10-31T19:39:15.614Z,418.55
2022-10-31T19:41:43.283Z,404.08
2022-10-31T19:44:13.423Z,421.42
2022-10-31T19:46:52.845Z,411.38
2022-10-31T19:49:21.340Z,407.08
2022-10-31T19:51:48.976Z,429.30
2022-10-31T19:54:18.205Z,408.88
2022-10-31T19:56:45.863Z,398.15
2022-10-31T19:59:13.824Z,402.40
2022-10-31T20:01:41.721Z,415.13
2022-10-31T20:04:09.427Z,414.67
2022-10-31T20:06:39.754Z,387.75
2022-10-31T20:09:09.618Z,400.67
2022-10-31T20:11:39.279Z,395.00
2022-10-31T20:14:07.963Z,412.95
2022-10-31T20:16:35.592Z,410.38
2022-10-31T20:19:03.456Z,401.83
2022-10-31T20:21:32.875Z,390.15
2022-10-31T20:24:01.987Z,382.38
2022-10-31T20:26:31.376Z,394.15
2022-10-31T20:29:02.047Z,384.70
2022-10-31T20:31:31.804Z,399.23
2022-10-31T20:33:59.465Z,403.15
2022-10-31T20:36:28.725Z,384.55
2022-10-31T20:38:56.387Z,390.73
2022-10-31T20:41:24.103Z,403.08
2022-10-31T20:43:51.801Z,373.75
2022-10-31T20:46:23.131Z,387.35
2022-10-31T20:48:51.506Z,406.58
2022-10-31T20:51:21.354Z,415.60
2022-10-31T20:53:49.312Z,381.45
2022-10-31T20:56:18.691Z,400.63
2022-10-31T20:58:47.029Z,364.63
2022-10-31T21:01:17.390Z,394.02
2022-10-31T21:04:08.739Z,370.77
2022-10-31T21:06:56.666Z,368.33
2022-10-31T21:09:44.668Z,353.50
2022-10-31T21:12:32.743Z,366.40
2022-10-31T21:15:20.634Z,364.52
2022-10-31T21:18:08.709Z,367.80
2022-10-31T21:20:57.975Z,360.80
2022-10-31T21:23:46.194Z,381.90
2022-10-31T21:26:38.219Z,386.08
2022-10-31T21:29:26.227Z,391.75
2022-10-31T21:32:14.193Z,382.85
2022-10-31T21:35:02.139Z,408.17
2022-10-31T21:37:51.381Z,366.52
2022-10-31T21:40:39.353Z,403.27
2022-10-31T21:43:27.409Z,378.10
2022-10-31T21:46:17.394Z,390.30
2022-10-31T21:49:05.695Z,384.02
2022-10-31T21:51:53.595Z,400.23
2022-10-31T21:54:42.824Z,392.45
2022-10-31T21:57:30.731Z,410.50
2022-10-31T22:00:19.389Z,417.08
2022-10-31T22:03:07.291Z,384.42
2022-10-31T22:06:00.459Z,405.35
2022-10-31T22:08:48.644Z,399.65
2022-10-31T22:11:37.912Z,413.92
2022-10-31T22:14:25.793Z,423.52
2022-10-31T22:17:13.738Z,438.45
2022-10-31T22:20:01.614Z,399.23
2022-10-31T22:22:49.499Z,415.92
2022-10-31T22:25:37.659Z,414.63
2022-10-31T22:28:30.057Z,426.20
2022-10-31T22:31:20.075Z,420.15
2022-10-31T22:34:08.288Z,408.48
2022-10-31T22:36:56.802Z,450.60
2022-10-31T22:39:44.759Z,445.80
2022-10-31T22:42:32.629Z,396.95
2022-10-31T22:45:21.857Z,426.95
2022-10-31T22:48:09.762Z,423.88
2022-10-31T22:51:04.984Z,440.42
2022-10-31T22:53:54.220Z,428.27
2022-10-31T22:56:42.512Z,429.20
2022-10-31T22:59:30.400Z,398.45
2022-10-31T23:02:19.683Z,414.45
2022-10-31T23:05:08.194Z,423.80
2022-10-31T23:07:56.076Z,408.60
2022-10-31T23:10:44.751Z,431.20
2022-10-31T23:13:49.951Z,404.15
2022-10-31T23:16:42.058Z,439.35
2022-10-31T23:19:31.590Z,406.95
2022-10-31T23:22:19.564Z,414.40
2022-10-31T23:25:08.210Z,420.20
2022-10-31T23:27:55.137Z,422.33
2022-10-31T23:30:43.043Z,397.08
2022-10-31T23:33:31.634Z,401.33
2022-10-31T23:36:20.919Z,433.60
2022-10-31T23:39:08.916Z,417.17
2022-10-31T23:41:56.946Z,411.88
2022-10-31T23:44:45.241Z,418.27
2022-10-31T23:47:33.146Z,414.95
2022-10-31T23:50:21.104Z,413.05
2022-10-31T23:53:10.379Z,414.20
2022-10-31T23:55:58.307Z,402.52
2022-10-31T23:58:46.259Z,418.05
